Time;durP1;ratioP1;P1;durP2;ratioP2;P2;SDS_P1;SDS_P2;PMS_P1;PMS_P2;Temp;Humidity;BMP_temperature;BMP_pressure;BME280_temperature;BME280_humidity;BME280_pressure;Samples;Min_cycle;Max_cycle;Signal;HPM_P1;HPM_P2
2022/11/28 00:00:27;;;;;;;6.00;3.53;;;;;;;8.86;70.08;101296.34;4998035;28;97342;-83
2022/11/28 00:02:52;;;;;;;4.60;3.20;;;;;;;8.80;70.26;101294.69;4998487;28;97085;-83
2022/11/28 00:05:17;;;;;;;5.90;4.10;;;;;;;8.75;70.17;101270.63;4998464;28;97464;-83
2022/11/28 00:07:43;;;;;;;4.80;4.07;;;;;;;8.71;70.38;101267.28;4998194;28;97643;-83
2022/11/28 00:10:09;;;;;;;3.67;3.23;;;;;;;8.69;70.65;101258.75;4997688;28;97423;-84
2022/11/28 00:12:35;;;;;;;4.20;3.43;;;;;;;8.68;70.58;101247.03;4998677;28;97374;-83
2022/11/28 00:15:00;;;;;;;7.10;4.57;;;;;;;8.69;70.63;101245.06;4996868;28;97799;-83
2022/11/28 00:17:26;;;;;;;5.00;3.60;;;;;;;8.67;70.64;101237.28;5001041;28;99917;-83
2022/11/28 00:19:51;;;;;;;7.43;3.93;;;;;;;8.68;70.68;101227.06;4996642;28;96799;-84
2022/11/28 00:22:16;;;;;;;4.13;3.73;;;;;;;8.68;70.78;101292.91;5002220;28;97399;-83
2022/11/28 00:24:42;;;;;;;5.67;3.90;;;;;;;8.65;70.75;101217.78;5000477;28;97956;-83
2022/11/28 00:27:07;;;;;;;5.80;4.57;;;;;;;8.65;70.80;101228.75;4999103;28;97600;-82
2022/11/28 00:29:33;;;;;;;5.90;4.50;;;;;;;8.69;70.80;101237.56;4995919;28;96842;-83
2022/11/28 00:31:58;;;;;;;5.80;4.60;;;;;;;8.65;70.64;101233.50;5000059;28;97210;-83
2022/11/28 00:34:23;;;;;;;5.30;4.50;;;;;;;8.68;70.68;101211.38;5002020;28;97292;-83
2022/11/28 00:36:49;;;;;;;8.00;5.00;;;;;;;8.64;70.72;101179.84;5000036;28;100273;-83
2022/11/28 00:39:16;;;;;;;6.37;4.90;;;;;;;8.65;70.62;101181.38;4997646;28;96960;-83
2022/11/28 00:41:42;;;;;;;6.40;4.67;;;;;;;8.58;70.65;101200.91;5007424;28;97479;-82
2022/11/28 00:44:07;;;;;;;8.30;4.87;;;;;;;8.61;70.83;101199.97;5006100;27;97967;-83
2022/11/28 00:46:33;;;;;;;7.70;5.57;;;;;;;8.61;70.62;101173.31;4996423;28;99554;-83
2022/11/28 00:48:59;;;;;;;6.10;4.67;;;;;;;8.64;70.80;101171.63;5000577;28;97343;-83
2022/11/28 00:51:27;;;;;;;10.90;4.17;;;;;;;8.64;70.84;101196.31;5000749;28;96871;-83
2022/11/28 00:53:55;;;;;;;5.60;4.80;;;;;;;8.65;70.76;101184.88;5001100;28;101234;-83
2022/11/28 00:56:24;;;;;;;4.90;4.37;;;;;;;8.66;70.66;101200.09;4999830;28;97678;-82
2022/11/28 00:58:50;;;;;;;8.00;4.40;;;;;;;8.70;70.93;101208.16;5001528;28;96971;-82
2022/11/28 01:01:20;;;;;;;12.60;5.10;;;;;;;8.73;70.79;101210.75;5018960;28;97503;-83
2022/11/28 01:03:47;;;;;;;6.53;4.70;;;;;;;8.76;70.55;101223.50;5001595;28;102884;-82
2022/11/28 01:06:23;;;;;;;9.60;4.37;;;;;;;8.78;70.47;101234.78;5000239;28;99584;-83
2022/11/28 01:08:49;;;;;;;5.30;4.70;;;;;;;8.79;70.53;101230.06;4995767;28;96822;-82
2022/11/28 01:11:14;;;;;;;6.60;4.20;;;;;;;8.83;70.33;101208.69;5003509;28;96926;-84
2022/11/28 01:13:39;;;;;;;5.27;4.17;;;;;;;8.83;70.36;101195.75;5002432;28;99756;-83
2022/11/28 01:16:05;;;;;;;7.97;4.43;;;;;;;8.80;70.18;101210.38;5001650;28;97537;-82
2022/11/28 01:18:31;;;;;;;5.07;4.57;;;;;;;8.78;70.28;101198.38;4999984;28;97159;-83
2022/11/28 01:20:56;;;;;;;7.40;4.80;;;;;;;8.76;70.35;101201.56;4985425;28;97464;-82
2022/11/28 01:23:21;;;;;;;6.07;4.40;;;;;;;8.66;70.04;101191.13;4986014;28;97001;-83
2022/11/28 01:25:47;;;;;;;5.40;4.30;;;;;;;8.74;70.40;101193.03;4980271;28;99354;-82
2022/11/28 01:28:12;;;;;;;5.43;4.63;;;;;;;8.72;70.32;101179.03;4992886;28;96763;-83
2022/11/28 01:30:38;;;;;;;4.63;4.10;;;;;;;8.72;70.18;101172.78;5002167;28;97342;-83
2022/11/28 01:33:03;;;;;;;5.40;4.17;;;;;;;8.63;70.16;101198.28;5003271;27;100299;-83
2022/11/28 01:35:28;;;;;;;9.20;4.77;;;;;;;8.67;70.47;101182.41;4999775;28;97305;-83
2022/11/28 01:37:54;;;;;;;4.53;4.13;;;;;;;8.67;70.24;101201.63;5003697;28;97175;-83
2022/11/28 01:40:19;;;;;;;6.20;4.23;;;;;;;8.68;70.46;101196.91;5004499;28;96947;-82
2022/11/28 01:42:45;;;;;;;4.43;4.03;;;;;;;8.75;70.24;101180.09;5009763;28;102752;-84
2022/11/28 01:45:29;;;;;;;4.43;4.00;;;;;;;8.80;70.24;101169.22;4997888;27;97608;-83
2022/11/28 01:47:58;;;;;;;8.20;5.07;;;;;;;8.83;70.25;101182.03;4997201;28;97453;-84
2022/11/28 01:50:26;;;;;;;10.43;4.60;;;;;;;8.83;70.20;101189.50;4999401;28;97026;-84
2022/11/28 01:52:56;;;;;;;7.93;4.20;;;;;;;8.82;69.88;101160.56;4999147;28;100618;-83
2022/11/28 01:55:25;;;;;;;6.00;5.00;;;;;;;8.74;69.79;101134.69;5005582;28;99457;-84
2022/11/28 01:57:52;;;;;;;7.07;4.60;;;;;;;8.66;70.28;101136.25;4998132;28;97050;-82
2022/11/28 02:00:19;;;;;;;4.27;3.53;;;;;;;8.66;70.31;101136.25;4996675;28;96868;-83
2022/11/28 02:02:53;;;;;;;4.20;3.80;;;;;;;8.69;70.00;101096.94;5001635;28;100821;-84
2022/11/28 02:05:20;;;;;;;7.60;3.63;;;;;;;8.67;70.15;101097.38;5003827;28;99094;-82
2022/11/28 02:07:47;;;;;;;4.10;3.70;;;;;;;8.65;70.23;101102.59;5001402;28;97189;-84
2022/11/28 02:10:19;;;;;;;5.83;4.10;;;;;;;8.67;70.09;101086.41;5003409;27;97232;-83
2022/11/28 02:13:10;;;;;;;4.43;4.00;;;;;;;8.65;69.60;101068.94;5007693;28;103492;-83
2022/11/28 02:15:47;;;;;;;5.57;4.30;;;;;;;8.63;70.04;101063.91;4995981;28;102820;-83
2022/11/28 02:18:17;;;;;;;4.10;3.50;;;;;;;8.64;70.14;101073.66;5000634;28;104204;-83
2022/11/28 02:20:48;;;;;;;4.50;3.70;;;;;;;8.66;69.86;101086.88;5004461;28;97167;-84
2022/11/28 02:23:34;;;;;;;5.83;4.07;;;;;;;8.70;69.73;101082.75;4995743;28;100556;-83
2022/11/28 02:26:05;;;;;;;3.80;3.30;;;;;;;8.72;69.90;101074.03;4999205;28;104108;-83
2022/11/28 02:28:34;;;;;;;4.37;3.53;;;;;;;8.72;69.80;101071.28;5002012;28;96902;-84
2022/11/28 02:31:14;;;;;;;5.17;4.43;;;;;;;8.75;69.88;101070.38;5004776;28;98400;-83
2022/11/28 02:34:00;;;;;;;4.73;3.23;;;;;;;8.75;68.99;101054.69;5000487;28;104494;-84
2022/11/28 02:36:40;;;;;;;7.47;4.50;;;;;;;8.76;69.74;101058.91;5000432;28;101501;-85
2022/11/28 02:39:26;;;;;;;6.93;3.80;;;;;;;8.76;69.02;101056.19;5003112;28;97306;-83
2022/11/28 02:42:08;;;;;;;8.33;3.90;;;;;;;8.77;69.42;101060.44;5006307;28;96701;-83
2022/11/28 02:44:53;;;;;;;5.97;4.17;;;;;;;8.74;69.41;101057.88;5016093;28;100268;-84
2022/11/28 02:47:28;;;;;;;5.60;4.07;;;;;;;8.76;69.69;101066.38;4997436;28;105574;-83
2022/11/28 02:50:09;;;;;;;5.10;3.83;;;;;;;8.76;69.31;101044.44;5001598;28;97593;-83
2022/11/28 02:52:55;;;;;;;4.70;3.50;;;;;;;8.76;68.91;101042.47;4997365;28;96868;-84
2022/11/28 02:55:21;;;;;;;3.70;3.40;;;;;;;8.76;69.54;101055.41;5000664;28;102483;-84
2022/11/28 02:57:52;;;;;;;5.20;4.23;;;;;;;8.75;69.40;101071.13;5004611;28;97089;-81
2022/11/28 03:00:28;;;;;;;4.43;3.80;;;;;;;8.77;69.29;101074.16;5003966;28;96976;-83
2022/11/28 03:03:32;;;;;;;3.67;3.30;;;;;;;8.82;69.11;101078.25;5007992;28;97043;-83
2022/11/28 03:06:33;;;;;;;4.90;3.60;;;;;;;8.82;69.09;101089.97;5002006;28;103822;-82
2022/11/28 03:09:15;;;;;;;4.37;2.90;;;;;;;8.80;69.26;101073.22;4997039;28;101699;-83
2022/11/28 03:12:02;;;;;;;3.50;3.20;;;;;;;8.81;69.07;101088.47;4998534;28;97738;-84
2022/11/28 03:14:50;;;;;;;5.93;3.50;;;;;;;8.83;68.84;101085.22;4997083;28;97515;-82
2022/11/28 03:17:52;;;;;;;3.53;3.23;;;;;;;8.83;68.94;101058.56;4994399;28;104976;-82
2022/11/28 03:20:20;;;;;;;4.07;3.67;;;;;;;8.79;69.19;101043.50;4996213;28;101344;-82
2022/11/28 03:23:04;;;;;;;5.90;3.43;;;;;;;8.78;69.49;101037.25;5004687;28;97640;-82
2022/11/28 03:25:42;;;;;;;3.90;3.60;;;;;;;8.78;69.39;101039.28;4998662;28;96990;-82
2022/11/28 03:28:20;;;;;;;6.77;3.97;;;;;;;8.77;69.17;101073.41;4999282;28;97434;-82
2022/11/28 03:30:51;;;;;;;6.37;3.50;;;;;;;8.79;69.46;101068.97;4996713;28;100476;-83
2022/11/28 03:33:20;;;;;;;8.67;3.97;;;;;;;8.82;69.29;101070.75;4990087;28;97466;-82
2022/11/28 03:35:49;;;;;;;4.20;3.87;;;;;;;8.83;69.15;101033.88;4993042;28;97367;-83
2022/11/28 03:38:43;;;;;;;4.30;3.20;;;;;;;8.79;68.92;101068.97;4995988;28;97630;-84
2022/11/28 03:41:27;;;;;;;4.13;3.73;;;;;;;8.80;68.90;101036.81;4990747;28;101154;-84
2022/11/28 03:43:56;;;;;;;5.37;3.23;;;;;;;8.79;69.23;101044.28;4996130;28;97245;-81
2022/11/28 03:46:33;;;;;;;5.50;3.87;;;;;;;8.80;69.45;101042.28;4997458;28;97544;-84
2022/11/28 03:49:01;;;;;;;4.33;3.43;;;;;;;8.84;69.34;101046.38;4989619;28;97559;-82
2022/11/28 03:51:34;;;;;;;4.20;3.03;;;;;;;8.87;69.10;101058.38;5002713;28;97715;-83
2022/11/28 03:54:07;;;;;;;4.00;2.93;;;;;;;8.88;68.95;101065.38;4992406;28;97015;-83
2022/11/28 03:56:50;;;;;;;4.63;3.30;;;;;;;8.92;68.70;101054.97;5001984;28;96840;-83
2022/11/28 03:59:22;;;;;;;4.27;3.27;;;;;;;8.93;68.77;101068.22;5012437;28;104999;-84
2022/11/28 04:02:15;;;;;;;3.63;3.07;;;;;;;8.93;68.42;101042.78;4993632;28;104875;-81
2022/11/28 04:04:58;;;;;;;4.10;2.93;;;;;;;8.93;68.73;101056.50;4996808;28;103485;-84
2022/11/28 04:07:48;;;;;;;3.23;2.93;;;;;;;8.89;68.25;101048.44;4994247;28;97195;-83
2022/11/28 04:10:28;;;;;;;3.83;3.23;;;;;;;8.88;68.67;101038.72;4990787;28;105795;-83
2022/11/28 04:13:14;;;;;;;2.87;2.37;;;;;;;8.87;68.57;101048.16;4995310;28;97740;-83
2022/11/28 04:16:02;;;;;;;4.00;3.27;;;;;;;8.87;68.28;101050.91;4996451;28;97672;-83
2022/11/28 04:19:05;;;;;;;6.20;2.83;;;;;;;8.86;67.97;101041.19;4998022;28;97175;-82
2022/11/28 04:21:43;;;;;;;2.70;2.50;;;;;;;8.87;68.42;101044.66;4994180;28;104722;-84
2022/11/28 04:24:13;;;;;;;3.00;2.80;;;;;;;8.86;68.48;101049.41;4992893;28;101551;-83
2022/11/28 04:26:58;;;;;;;2.87;2.67;;;;;;;8.86;68.42;101043.91;4992680;28;103506;-83
2022/11/28 04:29:26;;;;;;;2.63;2.43;;;;;;;8.88;68.75;101046.19;4994416;28;96921;-84
2022/11/28 04:31:55;;;;;;;3.53;2.50;;;;;;;8.89;68.49;101029.25;4996615;28;97274;-83
2022/11/28 04:34:23;;;;;;;2.87;2.63;;;;;;;8.90;68.31;101041.75;4994111;28;97247;-83
2022/11/28 04:36:51;;;;;;;3.20;2.43;;;;;;;8.88;68.15;101041.47;4995008;28;97270;-82
2022/11/28 04:39:24;;;;;;;3.57;2.40;;;;;;;8.90;68.37;101041.75;4995166;28;97172;-83
2022/11/28 04:41:56;;;;;;;2.60;2.40;;;;;;;8.89;68.17;101042.97;4997760;28;96853;-83
2022/11/28 04:44:50;;;;;;;4.00;2.70;;;;;;;8.91;68.14;101058.97;4996442;28;97487;-83
2022/11/28 04:47:16;;;;;;;2.70;2.50;;;;;;;8.92;68.20;101038.53;4951060;28;97123;-82
2022/11/28 04:49:41;;;;;;;3.60;2.33;;;;;;;8.90;68.25;101043.72;4991220;27;97363;-83
2022/11/28 04:52:21;;;;;;;3.77;2.67;;;;;;;8.92;68.20;101039.28;5000666;28;99731;-83
2022/11/28 04:55:07;;;;;;;3.53;3.23;;;;;;;8.91;67.72;101043.25;4993160;28;104839;-83
2022/11/28 04:57:38;;;;;;;4.70;2.63;;;;;;;8.91;68.12;101037.75;4995064;28;97102;-83
2022/11/28 05:00:09;;;;;;;4.27;2.50;;;;;;;8.93;68.07;101029.06;4993623;28;96891;-83
2022/11/28 05:02:36;;;;;;;3.97;2.37;;;;;;;8.95;68.13;101049.31;4991773;27;97609;-84
2022/11/28 05:05:10;;;;;;;6.70;2.90;;;;;;;8.92;67.76;101047.50;4990730;28;98169;-84
2022/11/28 05:07:35;;;;;;;3.67;2.50;;;;;;;8.93;68.10;101031.81;4993107;28;97793;-84
2022/11/28 05:10:01;;;;;;;2.90;2.60;;;;;;;8.89;67.80;101036.72;4993220;28;97125;-83
2022/11/28 05:12:26;;;;;;;2.10;1.90;;;;;;;8.88;68.13;101035.22;4991800;28;97816;-83
2022/11/28 05:14:52;;;;;;;3.30;2.70;;;;;;;8.88;68.04;101035.22;4993692;28;99243;-85
2022/11/28 05:17:17;;;;;;;2.53;2.33;;;;;;;8.84;67.96;101021.69;4996034;28;97295;-83
2022/11/28 05:19:43;;;;;;;3.03;2.73;;;;;;;8.86;67.93;101030.19;4992570;28;97347;-85
2022/11/28 05:22:08;;;;;;;7.93;2.47;;;;;;;8.87;67.91;101033.69;4981685;28;100647;-84
2022/11/28 05:24:33;;;;;;;2.87;2.17;;;;;;;8.86;67.80;101037.66;4995012;28;98465;-84
2022/11/28 05:26:59;;;;;;;2.30;2.20;;;;;;;8.92;68.00;101044.00;4987217;28;97190;-83
2022/11/28 05:29:25;;;;;;;2.80;2.43;;;;;;;8.91;67.79;101032.28;4991585;28;96913;-83
2022/11/28 05:31:50;;;;;;;3.90;2.43;;;;;;;8.92;67.50;101052.25;4991852;28;99011;-83
2022/11/28 05:34:15;;;;;;;3.00;2.70;;;;;;;8.89;67.60;101023.75;4991482;28;98067;-84
2022/11/28 05:36:41;;;;;;;2.57;2.37;;;;;;;8.91;67.63;101037.03;4992844;28;97892;-84
2022/11/28 05:39:06;;;;;;;6.97;3.20;;;;;;;8.90;67.75;101093.13;4991769;28;103437;-83
2022/11/28 05:41:32;;;;;;;2.20;2.10;;;;;;;8.89;67.71;101044.94;4997150;28;101097;-84
2022/11/28 05:43:58;;;;;;;3.40;3.10;;;;;;;8.86;67.68;101030.19;4994324;28;99251;-84
2022/11/28 05:46:24;;;;;;;2.40;2.20;;;;;;;8.84;67.60;101038.16;4994329;28;98486;-84
2022/11/28 05:48:50;;;;;;;4.67;2.83;;;;;;;8.83;67.66;101025.66;4988457;28;97341;-83
2022/11/28 05:51:16;;;;;;;2.83;2.60;;;;;;;8.83;67.60;101033.09;4995383;28;99293;-84
2022/11/28 05:53:42;;;;;;;2.90;2.60;;;;;;;8.79;67.66;101025.06;4990552;28;98898;-84
2022/11/28 05:56:09;;;;;;;2.60;2.40;;;;;;;8.82;67.64;101031.59;4989266;28;97153;-85
2022/11/28 05:58:35;;;;;;;2.30;2.10;;;;;;;8.83;67.62;101028.38;4992999;28;97441;-83
2022/11/28 06:01:11;;;;;;;4.53;2.67;;;;;;;8.79;67.52;101033.31;4991608;28;103705;-83
2022/11/28 06:03:37;;;;;;;3.17;2.80;;;;;;;8.77;67.60;101029.50;4990587;28;103112;-84
2022/11/28 06:06:02;;;;;;;3.67;2.73;;;;;;;8.80;67.49;101037.53;4993865;28;97013;-83
2022/11/28 06:08:28;;;;;;;3.60;3.23;;;;;;;8.79;67.35;101013.34;4994592;28;102811;-83
2022/11/28 06:10:57;;;;;;;3.67;3.00;;;;;;;8.77;67.59;101018.53;4992957;28;100560;-82
2022/11/28 06:13:22;;;;;;;2.70;2.50;;;;;;;8.77;67.55;101021.28;4992545;28;102644;-83
2022/11/28 06:15:48;;;;;;;2.97;2.47;;;;;;;8.71;67.61;101028.66;4993576;28;96874;-83
2022/11/28 06:18:13;;;;;;;3.47;3.10;;;;;;;8.70;67.51;101027.88;4996397;28;97587;-83
2022/11/28 06:20:39;;;;;;;2.57;2.47;;;;;;;8.67;67.46;101028.81;4991890;28;100603;-81
2022/11/28 06:23:04;;;;;;;2.97;2.70;;;;;;;8.68;67.57;101019.38;4992088;28;98772;-83
2022/11/28 06:25:29;;;;;;;3.23;3.00;;;;;;;8.69;67.40;101015.38;4988947;28;96958;-84
2022/11/28 06:27:55;;;;;;;3.00;2.80;;;;;;;8.63;67.44;101028.25;4993819;28;97193;-83
2022/11/28 06:30:20;;;;;;;3.63;3.33;;;;;;;8.56;67.53;101049.81;4992065;28;99318;-83
2022/11/28 06:32:45;;;;;;;3.27;2.97;;;;;;;8.60;67.51;101026.47;4991708;28;100257;-83
2022/11/28 06:35:11;;;;;;;3.60;3.30;;;;;;;8.59;67.64;101035.91;4990995;28;97446;-83
2022/11/28 06:37:36;;;;;;;5.80;3.37;;;;;;;8.58;67.42;101031.66;4997764;28;98358;-84
2022/11/28 06:40:02;;;;;;;4.27;3.60;;;;;;;8.60;67.60;101040.16;4986716;28;99264;-84
2022/11/28 06:42:28;;;;;;;4.30;3.90;;;;;;;8.62;67.46;101050.66;4992888;28;98703;-83
2022/11/28 06:44:53;;;;;;;4.17;3.20;;;;;;;8.51;67.69;101023.78;4992291;28;96979;-82
2022/11/28 06:47:18;;;;;;;3.80;3.27;;;;;;;8.57;67.41;101013.66;4996374;28;97472;-83
2022/11/28 06:49:44;;;;;;;4.17;2.97;;;;;;;8.60;67.44;101029.19;4991559;28;97555;-83
2022/11/28 06:52:09;;;;;;;4.73;3.40;;;;;;;8.61;67.24;101030.69;4990775;28;99741;-83
2022/11/28 06:54:35;;;;;;;5.07;3.90;;;;;;;8.59;67.38;101022.19;4988769;28;96741;-83
2022/11/28 06:57:00;;;;;;;4.43;3.10;;;;;;;8.56;67.39;101034.09;4991120;28;103332;-83
2022/11/28 06:59:25;;;;;;;5.97;3.40;;;;;;;8.61;67.43;101032.69;4990262;28;99304;-84
2022/11/28 07:01:51;;;;;;;4.03;3.37;;;;;;;8.56;67.51;101034.09;4987642;28;97384;-83
2022/11/28 07:04:16;;;;;;;4.43;3.10;;;;;;;8.58;67.46;101042.63;4989505;28;97015;-83
2022/11/28 07:06:43;;;;;;;4.10;3.70;;;;;;;8.56;67.40;101034.09;4989592;28;100178;-83
2022/11/28 07:09:09;;;;;;;3.30;3.00;;;;;;;8.58;67.41;101039.13;4995275;28;97449;-84
2022/11/28 07:11:34;;;;;;;3.63;3.33;;;;;;;8.53;67.38;101053.47;4990896;28;98277;-84
2022/11/28 07:14:01;;;;;;;4.13;3.70;;;;;;;8.60;67.27;101040.16;4991711;28;96724;-84
2022/11/28 07:16:29;;;;;;;9.03;3.40;;;;;;;8.54;67.50;101049.50;4991050;28;97641;-83
2022/11/28 07:18:56;;;;;;;3.13;2.90;;;;;;;8.55;67.39;101057.25;4994240;28;98850;-83
2022/11/28 07:21:21;;;;;;;4.30;3.57;;;;;;;8.49;67.51;101033.69;4992734;28;97505;-83
2022/11/28 07:23:47;;;;;;;4.07;3.70;;;;;;;8.56;67.28;101063.50;4991710;28;97045;-83
2022/11/28 07:26:14;;;;;;;3.80;3.17;;;;;;;8.56;67.45;101061.50;4992709;28;97521;-84
2022/11/28 07:28:40;;;;;;;6.77;4.20;;;;;;;8.55;67.52;101062.75;4993503;28;98068;-83
2022/11/28 07:31:11;;;;;;;3.83;3.43;;;;;;;8.56;67.32;101053.28;4996212;27;98797;-83
2022/11/28 07:33:41;;;;;;;3.90;3.50;;;;;;;8.53;67.64;101067.19;4997828;28;97648;-83
2022/11/28 07:36:10;;;;;;;4.20;3.50;;;;;;;8.52;67.81;101062.94;4997445;28;97033;-83
2022/11/28 07:38:36;;;;;;;4.40;3.03;;;;;;;8.57;67.53;101065.78;4994050;28;97380;-83
2022/11/28 07:41:09;;;;;;;3.20;2.90;;;;;;;8.57;67.28;101056.78;4995892;28;97062;-83
2022/11/28 07:43:34;;;;;;;4.40;3.80;;;;;;;8.49;67.22;101052.88;4991720;28;97690;-83
2022/11/28 07:46:05;;;;;;;4.10;3.70;;;;;;;8.51;67.41;101064.91;4994752;28;97386;-84
2022/11/28 07:48:31;;;;;;;3.60;3.30;;;;;;;8.55;67.25;101064.72;4994038;28;98696;-84
2022/11/28 07:50:56;;;;;;;5.40;3.97;;;;;;;8.53;67.44;101056.97;5000210;28;98628;-83
2022/11/28 07:53:21;;;;;;;3.50;3.20;;;;;;;8.55;67.26;101064.72;4997346;28;100657;-83
2022/11/28 07:55:47;;;;;;;5.10;3.50;;;;;;;8.58;67.12;101067.31;4993566;28;97581;-82
2022/11/28 07:58:12;;;;;;;3.97;3.47;;;;;;;8.61;67.24;101071.84;4998573;28;98794;-83
2022/11/28 08:00:38;;;;;;;5.27;3.57;;;;;;;8.62;67.32;101054.16;4993533;28;100792;-83
2022/11/28 08:03:04;;;;;;;5.90;3.80;;;;;;;8.61;67.16;101063.59;4995944;28;97242;-84
2022/11/28 08:05:29;;;;;;;4.30;3.60;;;;;;;8.62;67.05;101054.16;4996054;28;102709;-83
2022/11/28 08:07:55;;;;;;;4.13;3.70;;;;;;;8.64;67.17;101064.66;4992301;28;99356;-83
2022/11/28 08:10:20;;;;;;;4.40;4.00;;;;;;;8.68;67.07;101062.50;4991519;28;98195;-84
2022/11/28 08:12:46;;;;;;;5.33;4.23;;;;;;;8.72;67.14;101063.84;4988405;28;97887;-83
2022/11/28 08:15:11;;;;;;;6.20;3.93;;;;;;;8.69;67.02;101070.25;4995229;28;98354;-83
2022/11/28 08:17:37;;;;;;;3.77;3.43;;;;;;;8.65;66.78;101069.66;4994486;28;97203;-84
2022/11/28 08:20:03;;;;;;;7.93;3.87;;;;;;;8.72;67.03;101065.81;4988245;28;100322;-83
2022/11/28 08:22:28;;;;;;;4.67;4.17;;;;;;;8.70;67.11;101077.25;4993547;28;97311;-83
2022/11/28 08:24:53;;;;;;;4.37;3.67;;;;;;;8.69;67.12;101102.44;4992309;28;97141;-84
